Time;durP1;ratioP1;P1;durP2;ratioP2;P2;SDS_P1;SDS_P2;PMS_P1;PMS_P2;Temp;Humidity;BMP_temperature;BMP_pressure;BME280_temperature;BME280_humidity;BME280_pressure;Samples;Min_cycle;Max_cycle;Signal;HPM_P1;HPM_P2
2021/10/28 00:14:40;;;;;;;18.13;11.00;;;;;;;12.13;80.21;101389.53;5035346;28;20128;-68
2021/10/28 00:17:10;;;;;;;16.50;10.50;;;;;;;12.19;80.46;101388.31;5036398;28;20068;-68
2021/10/28 00:19:39;;;;;;;17.25;11.05;;;;;;;12.19;80.49;101384.75;5034884;28;20064;-67
2021/10/28 00:22:07;;;;;;;16.77;11.05;;;;;;;12.10;80.48;101375.56;5050801;28;20072;-65
2021/10/28 00:24:34;;;;;;;20.00;11.23;;;;;;;11.90;81.08;101375.97;5051781;28;20064;-65
2021/10/28 00:27:02;;;;;;;19.08;10.85;;;;;;;11.72;82.49;101369.41;5036248;28;20049;-65
2021/10/28 00:29:30;;;;;;;18.92;10.88;;;;;;;11.90;82.10;101371.25;5036061;28;20049;-66
2021/10/28 00:31:58;;;;;;;16.50;10.27;;;;;;;12.10;81.06;101361.75;5035913;28;20461;-66
2021/10/28 00:34:25;;;;;;;19.77;10.80;;;;;;;12.13;80.71;101358.38;5035909;28;20358;-65
2021/10/28 00:36:53;;;;;;;15.70;10.38;;;;;;;12.13;80.97;101356.41;5051356;28;20045;-65
2021/10/28 00:39:21;;;;;;;17.75;10.35;;;;;;;12.04;80.55;101349.16;5051612;28;20052;-65
2021/10/28 00:41:49;;;;;;;18.58;11.45;;;;;;;12.00;80.83;101350.91;5075987;28;20059;-65
2021/10/28 00:44:16;;;;;;;19.58;10.93;;;;;;;12.10;80.91;101356.22;5075418;28;20044;-66
2021/10/28 00:46:44;;;;;;;15.85;10.88;;;;;;;12.07;80.81;101341.09;5075788;28;20060;-66
2021/10/28 00:49:12;;;;;;;21.40;11.15;;;;;;;12.03;80.93;101348.34;5074548;28;20049;-66
2021/10/28 00:51:41;;;;;;;22.00;10.93;;;;;;;12.02;81.02;101340.38;5074516;28;20388;-65
2021/10/28 00:54:13;;;;;;;19.73;10.75;;;;;;;11.93;80.99;101342.22;5074223;28;20056;-65
2021/10/28 00:56:43;;;;;;;15.38;10.32;;;;;;;12.08;80.87;101348.22;5075715;28;20086;-66
2021/10/28 00:59:10;;;;;;;;;;;;;;;12.07;80.50;101332.81;5074831;28;20048;-65
2021/10/28 01:01:38;;;;;;;17.90;10.85;;;;;;;12.25;80.22;101339.31;5075423;28;19924;-65
2021/10/28 01:04:06;;;;;;;18.80;10.13;;;;;;;11.92;80.96;101329.53;5074056;28;20052;-65
2021/10/28 01:06:35;;;;;;;19.65;10.77;;;;;;;11.69;81.92;101334.13;5074551;28;20565;-67
2021/10/28 01:09:03;;;;;;;19.33;10.68;;;;;;;11.94;81.59;101325.31;5075342;28;20060;-66
2021/10/28 01:11:30;;;;;;;15.88;9.90;;;;;;;11.95;81.09;101329.75;5075616;28;20044;-65
2021/10/28 01:13:58;;;;;;;17.83;10.40;;;;;;;11.71;81.69;101322.78;5075051;28;20048;-65
2021/10/28 01:16:26;;;;;;;19.20;10.93;;;;;;;11.34;83.20;101330.09;5073977;28;20060;-66
2021/10/28 01:18:54;;;;;;;17.02;10.82;;;;;;;11.13;85.07;101325.22;5057854;28;20063;-68
2021/10/28 01:21:22;;;;;;;16.02;10.30;;;;;;;11.27;85.05;101331.59;5075436;28;20154;-68
2021/10/28 01:23:52;;;;;;;18.50;10.52;;;;;;;11.44;84.13;101323.53;5073930;28;20404;-68
2021/10/28 01:26:19;;;;;;;16.55;11.00;;;;;;;11.74;82.85;101311.13;5075189;28;20051;-66
2021/10/28 01:28:59;;;;;;;17.23;9.63;;;;;;;11.61;82.64;101307.22;5075109;28;20056;-65
2021/10/28 01:31:28;;;;;;;16.85;10.50;;;;;;;11.60;82.44;101316.63;5073788;28;20055;-65
2021/10/28 01:33:57;;;;;;;18.52;9.95;;;;;;;11.38;83.13;101312.91;5056898;28;20063;-65
2021/10/28 01:36:25;;;;;;;13.95;8.90;;;;;;;11.72;81.97;101300.41;5074976;28;20041;-66
2021/10/28 01:38:54;;;;;;;16.63;9.85;;;;;;;11.66;82.22;101303.56;5071099;28;20049;-66
2021/10/28 01:41:22;;;;;;;15.63;9.52;;;;;;;11.78;81.09;101301.13;5054774;28;20041;-66
2021/10/28 01:43:49;;;;;;;18.35;9.55;;;;;;;11.72;81.54;101299.56;5054391;28;20045;-67
2021/10/28 01:46:17;;;;;;;18.02;10.30;;;;;;;11.73;81.14;101298.47;5050032;28;20060;-65
2021/10/28 01:48:45;;;;;;;17.92;9.93;;;;;;;11.63;81.33;101295.88;5054911;28;20053;-65
2021/10/28 01:51:12;;;;;;;23.77;10.27;;;;;;;11.70;81.39;101297.13;5055115;28;20056;-64
2021/10/28 01:53:41;;;;;;;14.75;8.90;;;;;;;11.46;81.70;101292.88;5054644;28;20526;-65
2021/10/28 01:56:09;;;;;;;17.63;10.02;;;;;;;11.08;83.47;101297.75;5055021;28;20053;-65
2021/10/28 01:58:37;;;;;;;15.68;9.38;;;;;;;11.04;84.49;101293.94;5070019;28;20471;-65
2021/10/28 02:01:06;;;;;;;15.82;9.75;;;;;;;10.76;85.84;101292.22;5053597;28;20079;-65
2021/10/28 02:03:34;;;;;;;17.30;9.38;;;;;;;10.65;86.05;101282.50;5054577;28;20037;-65
2021/10/28 02:06:02;;;;;;;17.33;9.73;;;;;;;10.85;85.88;101285.72;5054812;28;20079;-64
2021/10/28 02:08:29;;;;;;;17.02;9.68;;;;;;;11.09;84.61;101285.59;5054547;28;20057;-64
2021/10/28 02:10:57;;;;;;;17.60;9.95;;;;;;;10.89;85.07;101283.19;5055478;28;20061;-65
2021/10/28 02:13:26;;;;;;;16.88;9.50;;;;;;;10.97;84.61;101282.50;5054464;28;20045;-66
2021/10/28 02:15:54;;;;;;;16.60;8.75;;;;;;;10.99;84.77;101278.31;5054741;28;20052;-67
2021/10/28 02:18:22;;;;;;;15.48;9.13;;;;;;;11.15;83.85;101276.94;5056719;28;20052;-67
2021/10/28 02:20:50;;;;;;;16.20;9.15;;;;;;;10.93;84.40;101264.94;5058716;28;20472;-68
2021/10/28 02:23:17;;;;;;;15.50;9.20;;;;;;;10.99;84.19;101264.53;5058382;28;20707;-69
2021/10/28 02:25:44;;;;;;;14.13;9.63;;;;;;;10.94;84.23;101259.13;5058663;28;20053;-68
2021/10/28 02:28:11;;;;;;;16.63;9.63;;;;;;;10.88;84.57;101256.78;5058586;28;20045;-70
2021/10/28 02:30:39;;;;;;;14.20;9.07;;;;;;;10.88;84.69;101257.56;5056997;28;20052;-67
2021/10/28 02:33:06;;;;;;;15.73;9.48;;;;;;;11.18;83.13;101248.75;5058693;28;20580;-68
2021/10/28 02:35:34;;;;;;;14.38;9.38;;;;;;;11.11;83.23;101242.81;5058638;28;20049;-69
2021/10/28 02:38:03;;;;;;;15.82;8.88;;;;;;;11.16;82.84;101239.97;5058702;28;20041;-67
2021/10/28 02:40:31;;;;;;;13.43;8.98;;;;;;;11.16;82.78;101228.94;5076191;28;20502;-68
2021/10/28 02:42:59;;;;;;;18.40;8.98;;;;;;;11.05;83.12;101230.22;5078395;28;20054;-65
2021/10/28 02:45:26;;;;;;;17.20;9.52;;;;;;;11.18;82.57;101225.88;5077832;28;20056;-65
2021/10/28 02:47:54;;;;;;;15.88;9.23;;;;;;;11.03;82.80;101227.00;5077088;28;20048;-65
2021/10/28 02:50:23;;;;;;;18.38;9.38;;;;;;;10.98;82.87;101231.78;5078196;28;20063;-65
2021/10/28 02:52:50;;;;;;;15.70;9.32;;;;;;;10.78;83.45;101226.59;5076731;28;20052;-65
2021/10/28 02:55:18;;;;;;;14.77;9.07;;;;;;;10.57;84.59;101225.31;5078090;28;20052;-65
2021/10/28 02:57:45;;;;;;;17.33;10.20;;;;;;;10.70;84.69;101230.06;5060587;28;20053;-65
2021/10/28 03:00:13;;;;;;;16.42;9.73;;;;;;;10.68;84.46;101230.38;5077928;28;20049;-64
2021/10/28 03:02:41;;;;;;;15.55;8.73;;;;;;;10.65;84.48;101230.16;5076614;28;20044;-64
2021/10/28 03:05:10;;;;;;;17.02;9.57;;;;;;;10.43;85.53;101233.53;5077688;28;20052;-64
2021/10/28 03:07:38;;;;;;;16.77;9.55;;;;;;;10.40;85.77;101222.31;5077983;28;20140;-65
2021/10/28 03:10:07;;;;;;;16.60;9.32;;;;;;;10.33;85.92;101225.44;5077583;28;20056;-65
2021/10/28 03:12:37;;;;;;;19.55;10.13;;;;;;;10.11;87.04;101217.00;5076414;28;20057;-65
2021/10/28 03:15:08;;;;;;;16.58;9.52;;;;;;;10.23;86.92;101220.91;5075869;28;20051;-65
2021/10/28 03:17:50;;;;;;;19.35;10.73;;;;;;;10.19;86.73;101222.63;5077488;28;20507;-64
2021/10/28 03:25:36;;;;;;;18.17;9.75;;;;;;;10.14;86.79;101217.22;5062220;28;20059;-64
2021/10/28 03:28:13;;;;;;;16.73;9.70;;;;;;;10.06;87.16;101214.25;5077541;28;20511;-68
2021/10/28 03:30:41;;;;;;;19.35;10.32;;;;;;;9.94;87.29;101214.69;5075900;28;20412;-64
2021/10/28 03:33:12;;;;;;;17.60;10.15;;;;;;;9.95;87.71;101201.78;5075910;28;20396;-65
2021/10/28 03:35:41;;;;;;;14.90;9.38;;;;;;;9.90;88.58;101204.59;5076039;28;20060;-65
2021/10/28 03:38:19;;;;;;;15.13;9.95;;;;;;;10.13;87.28;101192.69;5077321;28;20049;-65
2021/10/28 04:31:25;;;;;;;18.15;11.25;;;;;;;9.91;85.65;101179.53;5055060;28;20045;-65
2021/10/28 04:33:52;;;;;;;17.90;10.93;;;;;;;9.83;86.15;101179.38;5054799;28;20049;-64
2021/10/28 04:36:23;;;;;;;18.38;12.07;;;;;;;9.67;87.51;101180.72;5056038;28;20041;-65
2021/10/28 04:38:50;;;;;;;18.92;11.25;;;;;;;9.59;87.50;101182.19;5059894;28;20052;-64
2021/10/28 04:41:18;;;;;;;19.40;11.18;;;;;;;9.50;88.27;101194.16;5075902;28;20059;-65
2021/10/28 04:43:45;;;;;;;17.83;11.63;;;;;;;9.49;88.66;101184.25;5075661;28;20052;-64
2021/10/28 04:46:12;;;;;;;20.50;11.48;;;;;;;9.56;88.63;101185.53;5074357;28;20067;-67
2021/10/28 04:48:40;;;;;;;18.73;11.40;;;;;;;9.77;86.82;101186.06;5076082;28;20075;-64
2021/10/28 04:51:07;;;;;;;16.05;11.20;;;;;;;9.79;86.90;101176.41;5075896;28;20052;-65
2021/10/28 04:53:35;;;;;;;18.88;11.32;;;;;;;9.82;86.80;101172.22;5074248;28;20056;-65
2021/10/28 04:56:02;;;;;;;16.27;11.07;;;;;;;9.92;86.32;101172.91;5076123;28;20055;-65
2021/10/28 04:58:29;;;;;;;16.00;11.75;;;;;;;9.65;86.20;101183.75;5075607;28;20045;-65
2021/10/28 05:01:00;;;;;;;19.65;12.02;;;;;;;9.55;87.90;101183.91;5042142;28;20064;-65
2021/10/28 05:03:35;;;;;;;19.23;11.60;;;;;;;9.52;88.18;101178.19;5057903;28;20059;-65
2021/10/28 05:06:08;;;;;;;18.35;11.95;;;;;;;9.49;88.43;101181.50;5074158;28;20053;-66
2021/10/28 05:08:36;;;;;;;19.70;12.02;;;;;;;9.62;88.03;101175.28;5058473;28;20059;-65
2021/10/28 05:11:04;;;;;;;17.58;11.75;;;;;;;9.52;87.83;101178.19;5041219;28;20067;-65
2021/10/28 05:13:34;;;;;;;21.75;12.45;;;;;;;9.37;87.99;101179.19;5041685;28;20051;-65
2021/10/28 05:16:02;;;;;;;17.90;11.65;;;;;;;9.50;88.40;101178.44;5057358;28;20053;-65
2021/10/28 05:18:38;;;;;;;23.35;12.13;;;;;;;9.46;88.29;101171.09;5075337;28;20060;-64
2021/10/28 05:21:07;;;;;;;19.33;12.50;;;;;;;9.80;86.89;101169.78;5075677;28;20056;-66
2021/10/28 05:23:36;;;;;;;20.35;11.95;;;;;;;9.78;85.99;101166.50;5074229;28;20112;-64
2021/10/28 05:26:04;;;;;;;24.40;13.27;;;;;;;9.64;86.66;101179.34;5074075;28;20064;-65
2021/10/28 05:28:32;;;;;;;19.77;12.15;;;;;;;9.76;86.44;101184.44;5073568;28;20404;-65
2021/10/28 05:31:00;;;;;;;23.55;13.77;;;;;;;9.80;85.29;101177.22;5075395;28;20044;-65
2021/10/28 05:33:28;;;;;;;30.23;17.15;;;;;;;9.78;85.45;101173.97;5057476;28;20067;-65
2021/10/28 05:35:55;;;;;;;22.13;13.93;;;;;;;9.78;85.39;101174.75;5056998;28;20052;-65
2021/10/28 05:38:22;;;;;;;20.52;14.00;;;;;;;9.56;86.30;101192.94;5073790;28;20048;-64
2021/10/28 05:40:49;;;;;;;25.13;14.10;;;;;;;9.47;86.99;101183.72;5056657;28;20064;-65
2021/10/28 05:43:17;;;;;;;21.13;14.00;;;;;;;9.35;87.67;101184.16;5065388;28;20044;-65
2021/10/28 05:45:45;;;;;;;22.10;14.73;;;;;;;9.26;88.19;101185.91;5055984;28;20101;-65
2021/10/28 05:48:13;;;;;;;22.77;13.50;;;;;;;9.23;88.29;101186.50;5042997;28;20144;-65
2021/10/28 05:50:41;;;;;;;21.67;14.27;;;;;;;9.35;87.75;101184.16;5034086;28;20071;-65
2021/10/28 05:53:10;;;;;;;20.98;13.57;;;;;;;9.56;87.41;101185.53;5052284;28;20038;-64
2021/10/28 05:55:38;;;;;;;23.70;14.40;;;;;;;9.53;87.09;101177.88;5038573;28;20056;-64
2021/10/28 05:58:05;;;;;;;20.40;13.98;;;;;;;9.55;87.11;101169.31;5038733;28;20060;-63
2021/10/28 06:00:33;;;;;;;25.05;14.98;;;;;;;9.48;87.27;101169.69;5056824;28;20049;-66
2021/10/28 06:03:04;;;;;;;23.92;14.70;;;;;;;9.33;87.48;101174.56;5041302;28;20532;-66
2021/10/28 06:05:40;;;;;;;22.40;13.98;;;;;;;9.47;87.47;101181.78;5057616;28;20057;-66
2021/10/28 06:08:08;;;;;;;22.60;14.40;;;;;;;9.56;86.37;101176.44;5054661;28;20384;-66
2021/10/28 06:10:44;;;;;;;24.48;15.05;;;;;;;9.42;86.31;101181.03;5024179;28;20041;-65
2021/10/28 06:13:17;;;;;;;21.10;14.55;;;;;;;9.39;87.00;101176.13;5077762;28;20045;-66
2021/10/28 06:15:47;;;;;;;21.88;15.18;;;;;;;9.23;87.81;101174.69;5050481;28;20068;-65
2021/10/28 06:20:44;;;;;;;;;;;;;;;9.32;87.72;101173.75;5056327;28;20064;-65
2021/10/28 06:23:12;;;;;;;21.73;15.70;;;;;;;9.51;87.06;101177.34;5056016;28;19921;-67
2021/10/28 06:25:40;;;;;;;24.70;16.67;;;;;;;9.27;87.73;101173.00;5057242;28;20040;-68
2021/10/28 06:28:07;;;;;;;25.48;15.02;;;;;;;9.50;86.89;101178.44;5058074;28;20057;-64
2021/10/28 06:30:34;;;;;;;30.85;15.50;;;;;;;9.30;87.06;101173.22;5054130;28;20057;-64
2021/10/28 06:33:10;;;;;;;26.92;15.55;;;;;;;9.35;87.27;101177.81;5043853;28;20127;-64
2021/10/28 06:35:39;;;;;;;21.50;15.30;;;;;;;9.83;87.16;101174.69;5053208;28;20386;-64
2021/10/28 06:38:07;;;;;;;21.88;15.00;;;;;;;9.94;86.53;101178.94;5055687;28;20049;-64
2021/10/28 06:40:36;;;;;;;22.50;14.38;;;;;;;9.88;85.63;101173.81;5043080;28;20895;-64
2021/10/28 06:43:04;;;;;;;22.73;14.63;;;;;;;9.80;85.38;101172.53;5038684;28;20049;-64
2021/10/28 06:45:33;;;;;;;22.63;15.15;;;;;;;9.86;85.21;101181.53;5040860;28;20037;-62
2021/10/28 06:48:01;;;;;;;21.35;14.73;;;;;;;10.09;84.31;101177.94;5026296;28;20068;-64
2021/10/28 06:50:33;;;;;;;26.38;15.20;;;;;;;10.14;83.99;101184.19;5052723;28;20534;-62
2021/10/28 06:53:22;;;;;;;20.75;13.50;;;;;;;10.24;83.37;101177.69;5057068;28;20072;-64
2021/10/28 06:55:58;;;;;;;20.60;14.95;;;;;;;9.87;83.25;101180.41;5042785;28;20516;-63
2021/10/28 07:04:13;;;;;;;29.30;15.77;;;;;;;9.93;83.38;101176.47;5056006;28;20088;-63
2021/10/28 07:06:41;;;;;;;19.67;14.32;;;;;;;10.18;82.67;101181.66;5051524;28;20045;-63
2021/10/28 07:09:28;;;;;;;21.38;15.63;;;;;;;10.10;82.00;101182.31;5047422;28;20056;-64
2021/10/28 07:12:20;;;;;;;22.23;14.77;;;;;;;9.86;83.16;101171.38;5051138;28;20511;-63
2021/10/28 07:14:52;;;;;;;25.02;14.82;;;;;;;9.99;82.76;101175.28;5051995;28;20044;-64
2021/10/28 07:17:28;;;;;;;21.33;15.00;;;;;;;10.08;81.73;101173.50;5054940;28;20143;-63
2021/10/28 07:25:17;;;;;;;21.50;15.57;;;;;;;9.89;82.79;101169.94;5064339;28;20049;-64
2021/10/28 08:06:23;;;;;;;26.80;16.77;;;;;;;9.83;83.32;101187.66;5049201;28;20056;-68
2021/10/28 08:19:40;;;;;;;21.98;14.30;;;;;;;10.17;82.01;101166.22;5063012;28;19948;-70
2021/10/28 08:22:20;;;;;;;24.17;14.13;;;;;;;10.31;81.30;101166.28;5064417;28;20053;-68
2021/10/28 08:30:21;;;;;;;19.77;14.90;;;;;;;9.85;82.52;101160.66;5038260;28;20064;-68
2021/10/28 08:32:49;;;;;;;20.95;14.10;;;;;;;10.09;81.81;101164.16;5053328;28;20060;-68
2021/10/28 08:35:37;;;;;;;24.67;13.48;;;;;;;10.30;81.26;101172.91;5052146;28;20044;-68
2021/10/28 08:38:06;;;;;;;20.00;14.43;;;;;;;10.17;80.85;101166.22;5053677;28;20060;-67
2021/10/28 08:40:33;;;;;;;19.35;13.48;;;;;;;10.13;81.74;101160.50;5056128;28;20052;-69
2021/10/28 08:43:03;;;;;;;20.02;13.40;;;;;;;10.32;80.83;101160.47;5049698;28;20048;-70
2021/10/28 08:45:35;;;;;;;17.77;13.25;;;;;;;10.40;80.49;101165.28;5055989;28;20427;-70
2021/10/28 08:48:05;;;;;;;20.13;13.73;;;;;;;10.62;79.97;101148.09;5053538;28;20045;-69
2021/10/28 08:50:40;;;;;;;20.52;13.77;;;;;;;10.45;80.16;101151.44;5049537;28;20388;-68
2021/10/28 08:53:22;;;;;;;24.35;13.48;;;;;;;10.70;79.62;101136.41;5046974;28;20053;-67
2021/10/28 08:55:55;;;;;;;18.60;12.23;;;;;;;10.76;79.02;101135.16;5055359;28;20048;-70
2021/10/28 09:27:04;;;;;;;20.83;12.00;;;;;;;11.79;75.60;101093.81;5053510;28;20523;-67
2021/10/28 09:32:37;;;;;;;19.83;12.70;;;;;;;11.47;76.35;101093.19;5054298;28;20079;-66
2021/10/28 09:35:33;;;;;;;25.63;12.07;;;;;;;11.68;76.02;101083.34;5055304;28;20063;-68
2021/10/28 09:44:50;;;;;;;17.90;12.40;;;;;;;11.46;76.28;101078.56;5047030;28;20049;-71
2021/10/28 09:50:24;;;;;;;16.48;10.57;;;;;;;11.89;75.40;101073.44;5039835;28;20059;-66
2021/10/28 09:53:27;;;;;;;17.05;11.02;;;;;;;12.03;75.10;101082.50;5053329;28;20519;-69
2021/10/28 09:58:41;;;;;;;22.75;11.27;;;;;;;12.47;74.35;101076.88;5055073;28;20049;-65
2021/10/28 10:01:44;;;;;;;17.02;10.60;;;;;;;12.62;73.04;101073.72;5054029;28;20044;-65
2021/10/28 10:04:15;;;;;;;21.05;10.70;;;;;;;12.86;72.22;101076.91;5069768;28;20068;-70
2021/10/28 10:06:44;;;;;;;18.15;10.55;;;;;;;12.58;72.72;101071.91;5053549;28;20044;-70
2021/10/28 10:09:13;;;;;;;24.52;10.77;;;;;;;12.34;73.59;101073.06;5054680;28;20056;-64
2021/10/28 10:11:43;;;;;;;17.45;10.63;;;;;;;12.58;73.69;101063.63;5053690;28;20049;-70
2021/10/28 10:14:11;;;;;;;13.18;9.77;;;;;;;12.68;72.63;101058.63;5069993;28;20049;-71
2021/10/28 10:16:41;;;;;;;17.85;10.65;;;;;;;12.51;73.35;101046.69;5034731;28;20041;-66
2021/10/28 10:19:09;;;;;;;14.35;10.02;;;;;;;12.62;72.99;101046.09;5054240;28;20108;-66
2021/10/28 10:21:40;;;;;;;18.17;10.20;;;;;;;12.54;73.63;101038.56;5049004;28;20049;-64
2021/10/28 10:27:37;;;;;;;15.88;9.57;;;;;;;13.32;71.96;101030.19;5051606;28;20053;-71
2021/10/28 11:26:21;;;;;;;12.35;7.95;;;;;;;14.75;67.45;100948.22;5056925;28;20063;-72
2021/10/28 12:45:31;;;;;;;10.68;5.25;;;;;;;17.34;58.21;100785.94;5051369;28;20052;-70
2021/10/28 12:56:23;;;;;;;11.60;4.93;;;;;;;17.68;56.01;100760.22;5051654;28;20064;-69
2021/10/28 13:05:16;;;;;;;12.93;4.57;;;;;;;17.81;54.68;100735.84;5051382;28;20357;-70
2021/10/28 14:29:25;;;;;;;8.20;3.17;;;;;;;18.17;48.73;100651.88;5056805;28;20045;-66
2021/10/28 15:27:58;;;;;;;16.85;4.43;;;;;;;17.72;50.36;100601.50;5056489;28;20052;-65
2021/10/28 15:30:41;;;;;;;14.60;4.75;;;;;;;17.61;50.95;100604.03;5053387;28;20053;-65
2021/10/28 15:35:40;;;;;;;13.02;3.58;;;;;;;17.84;50.11;100593.00;5056448;28;20052;-69
2021/10/28 15:47:17;;;;;;;13.55;3.55;;;;;;;17.68;50.35;100581.91;5055599;28;20060;-69
2021/10/28 15:57:24;;;;;;;9.82;4.05;;;;;;;17.61;50.60;100567.81;5056284;28;20056;-69
2021/10/28 16:21:52;;;;;;;8.13;3.75;;;;;;;17.27;51.96;100548.31;5050710;28;20060;-65
2021/10/28 16:24:23;;;;;;;11.38;4.13;;;;;;;17.22;52.37;100551.38;5064469;28;20044;-65
2021/10/28 16:26:51;;;;;;;9.85;4.18;;;;;;;17.13;52.81;100547.97;5059830;28;20060;-72
2021/10/28 16:29:19;;;;;;;11.20;4.10;;;;;;;17.23;52.16;100542.66;5053950;28;20054;-65
2021/10/28 16:31:46;;;;;;;9.95;3.88;;;;;;;17.22;52.51;100540.22;5053876;28;20056;-67
2021/10/28 16:34:14;;;;;;;10.25;3.65;;;;;;;17.27;52.34;100546.34;5055562;28;20055;-66
2021/10/28 16:36:43;;;;;;;9.68;4.20;;;;;;;17.18;52.71;100536.56;5052630;28;20053;-64
2021/10/28 16:39:12;;;;;;;10.80;4.07;;;;;;;17.31;52.07;100536.06;5061282;28;20040;-65
2021/10/28 16:41:44;;;;;;;9.32;3.88;;;;;;;17.17;52.58;100530.19;5036178;28;20053;-68
2021/10/28 16:44:12;;;;;;;12.18;4.03;;;;;;;17.26;52.39;100522.44;5035739;28;20065;-66
2021/10/28 16:46:40;;;;;;;8.52;4.00;;;;;;;17.13;52.66;100531.25;5024103;28;20492;-66
2021/10/28 16:49:09;;;;;;;7.97;4.03;;;;;;;17.29;52.27;100532.06;5044958;28;20056;-66
2021/10/28 16:51:36;;;;;;;11.18;4.30;;;;;;;17.03;52.95;100527.06;5053411;28;20060;-66
2021/10/28 16:54:04;;;;;;;9.93;4.57;;;;;;;17.01;53.09;100523.03;5068745;28;20060;-67
2021/10/28 16:56:32;;;;;;;9.63;4.25;;;;;;;17.08;53.08;100520.41;5052785;28;20044;-64
2021/10/28 16:58:59;;;;;;;7.78;4.22;;;;;;;17.01;53.23;100523.84;5053713;28;20060;-65
2021/10/28 17:01:27;;;;;;;12.23;4.43;;;;;;;17.05;52.96;100526.72;5055256;28;20052;-65
2021/10/28 17:03:55;;;;;;;14.55;4.25;;;;;;;17.04;53.11;100525.06;5054620;28;20053;-68
2021/10/28 17:06:22;;;;;;;11.07;4.50;;;;;;;17.07;53.17;100527.16;5055008;28;20053;-69
2021/10/28 17:09:01;;;;;;;7.60;3.83;;;;;;;17.05;53.02;100533.06;5054185;28;20052;-67
2021/10/28 17:11:30;;;;;;;10.02;4.90;;;;;;;16.89;53.63;100533.06;5021402;28;20135;-68
2021/10/28 17:13:57;;;;;;;10.32;5.03;;;;;;;16.91;53.63;100529.97;5054907;28;20044;-67
2021/10/28 17:16:25;;;;;;;8.55;4.50;;;;;;;16.66;54.22;100543.25;5055160;28;20049;-67
2021/10/28 17:18:52;;;;;;;10.00;4.78;;;;;;;16.78;54.28;100536.78;5054022;28;20052;-68
2021/10/28 17:21:20;;;;;;;11.23;4.57;;;;;;;16.49;54.83;100535.22;5053322;28;20052;-64
2021/10/28 17:23:57;;;;;;;13.00;5.18;;;;;;;16.82;54.14;100532.13;5053136;28;20068;-64
2021/10/28 17:26:24;;;;;;;10.45;5.03;;;;;;;16.67;54.46;100530.94;5053139;28;20060;-65
2021/10/28 17:28:54;;;;;;;10.65;4.97;;;;;;;16.61;54.67;100529.59;5052753;28;20072;-65
2021/10/28 17:31:21;;;;;;;19.53;5.00;;;;;;;16.32;55.60;100529.19;5055252;28;20052;-66
2021/10/28 17:33:48;;;;;;;10.73;5.78;;;;;;;16.38;55.55;100533.31;5052682;28;20056;-69
2021/10/28 17:36:16;;;;;;;13.75;5.72;;;;;;;16.50;55.27;100530.47;5067209;28;20060;-65
2021/10/28 17:38:43;;;;;;;13.93;6.15;;;;;;;16.48;55.38;100532.81;5038487;28;20413;-64
2021/10/28 17:41:11;;;;;;;13.60;5.88;;;;;;;16.34;55.75;100533.22;5054463;28;20060;-64
2021/10/28 17:43:50;;;;;;;12.95;5.70;;;;;;;16.32;55.87;100532.75;5038053;28;20068;-65
2021/10/28 17:46:18;;;;;;;13.65;6.07;;;;;;;16.43;55.69;100525.50;5054944;28;20152;-65
2021/10/28 17:48:48;;;;;;;15.10;5.30;;;;;;;16.38;55.91;100530.53;5052789;28;20049;-66
2021/10/28 17:51:16;;;;;;;;;;;;;;;16.33;55.96;100520.50;5042380;28;20056;-67
2021/10/28 17:53:44;;;;;;;13.30;5.40;;;;;;;16.31;56.29;100528.38;5055125;28;19921;-69
2021/10/28 17:56:12;;;;;;;9.63;5.97;;;;;;;16.08;57.02;100527.31;5068943;28;20053;-62
2021/10/28 17:58:40;;;;;;;14.60;5.75;;;;;;;16.12;57.04;100521.88;5053153;28;20055;-63
2021/10/28 18:01:10;;;;;;;11.38;5.97;;;;;;;16.06;57.43;100528.81;5053037;28;20041;-62
2021/10/28 18:03:38;;;;;;;17.20;5.60;;;;;;;15.89;57.76;100521.63;5053555;28;20049;-61
2021/10/28 18:06:05;;;;;;;15.40;6.07;;;;;;;15.90;57.92;100520.44;5052370;28;20096;-63
2021/10/28 18:08:34;;;;;;;11.30;5.50;;;;;;;15.78;58.36;100512.16;5040103;28;20053;-62
2021/10/28 18:11:01;;;;;;;12.00;5.32;;;;;;;15.75;58.56;100510.94;5037425;28;20045;-62
2021/10/28 18:13:28;;;;;;;12.88;5.63;;;;;;;15.70;58.90;100522.28;5052403;28;20591;-62
2021/10/28 18:15:56;;;;;;;11.57;5.43;;;;;;;15.87;58.71;100514.78;5052461;28;20044;-61
2021/10/28 18:18:24;;;;;;;10.98;5.80;;;;;;;15.61;59.14;100520.78;5052950;28;20060;-62
2021/10/28 18:21:00;;;;;;;13.70;6.90;;;;;;;15.76;58.96;100520.84;5054498;28;20052;-63
2021/10/28 18:23:31;;;;;;;11.05;5.75;;;;;;;15.87;58.75;100509.25;5052863;28;20068;-61
2021/10/28 18:25:59;;;;;;;12.00;6.00;;;;;;;15.84;58.73;100513.56;5053831;28;20049;-64
2021/10/28 18:28:30;;;;;;;10.30;6.05;;;;;;;15.75;nan;100508.16;5054468;28;20060;-62
2021/10/28 18:30:57;;;;;;;12.32;5.68;;;;;;;15.82;58.82;100512.28;5054725;28;20049;-63
2021/10/28 18:33:25;;;;;;;14.63;5.97;;;;;;;15.71;59.33;100512.78;5054535;28;20045;-62
2021/10/28 18:35:53;;;;;;;33.67;16.27;;;;;;;15.79;58.91;100509.03;5068595;28;20079;-63
2021/10/28 18:38:21;;;;;;;18.00;9.30;;;;;;;15.80;58.92;100495.97;5053762;28;20416;-63
2021/10/28 18:40:52;;;;;;;18.65;10.60;;;;;;;15.82;59.15;100503.94;5063752;28;20052;-64
2021/10/28 18:43:19;;;;;;;19.58;10.38;;;;;;;15.84;58.84;100498.84;5053361;28;20059;-64
2021/10/28 18:45:48;;;;;;;19.98;9.73;;;;;;;15.85;59.05;100500.47;5054193;28;20060;-62
2021/10/28 18:48:16;;;;;;;20.10;11.43;;;;;;;15.63;59.50;100494.31;5058667;28;20053;-64
2021/10/28 18:50:43;;;;;;;17.83;9.25;;;;;;;15.74;59.45;100492.63;5074632;28;20384;-63
2021/10/28 18:53:10;;;;;;;16.73;9.00;;;;;;;15.53;59.96;100492.00;5054864;28;20056;-63
2021/10/28 18:55:39;;;;;;;13.75;7.65;;;;;;;15.42;60.28;100485.34;5034775;28;20053;-61
2021/10/28 18:58:07;;;;;;;11.98;7.00;;;;;;;15.46;60.46;100496.56;5049891;28;20052;-62
2021/10/28 19:00:35;;;;;;;14.30;7.47;;;;;;;15.33;60.70;100486.59;5054912;28;20051;-62
2021/10/28 19:03:03;;;;;;;14.30;7.50;;;;;;;15.20;61.21;100483.03;5054526;28;20184;-61
2021/10/28 19:05:31;;;;;;;15.63;7.13;;;;;;;15.43;60.77;100481.41;5068078;28;20075;-62
2021/10/28 19:07:58;;;;;;;14.45;6.55;;;;;;;15.12;61.42;100478.44;5066443;28;20051;-63
2021/10/28 19:10:27;;;;;;;12.48;6.85;;;;;;;15.04;61.87;100479.38;5057782;28;20056;-64
2021/10/28 19:12:55;;;;;;;11.93;7.03;;;;;;;15.14;61.60;100481.69;5055742;28;20045;-63
2021/10/28 19:15:22;;;;;;;17.35;7.82;;;;;;;15.18;61.51;100471.50;5054101;28;20056;-63
2021/10/28 19:17:52;;;;;;;28.80;15.30;;;;;;;15.24;61.43;100460.94;5038654;28;20076;-63
2021/10/28 19:20:20;;;;;;;23.38;13.80;;;;;;;15.14;61.63;100472.53;5052701;28;20045;-61
2021/10/28 19:22:48;;;;;;;22.55;12.77;;;;;;;15.32;61.17;100462.78;5048228;28;20072;-63
2021/10/28 19:25:15;;;;;;;20.90;10.30;;;;;;;15.31;61.32;100461.16;5045182;28;20052;-62
2021/10/28 19:27:43;;;;;;;14.38;8.73;;;;;;;15.36;61.33;100460.94;5050300;28;20064;-62
2021/10/28 19:30:25;;;;;;;13.63;7.65;;;;;;;15.17;61.64;100455.19;5054919;28;20052;-62
2021/10/28 19:32:57;;;;;;;11.40;6.75;;;;;;;15.03;62.12;100455.56;5041823;28;20052;-61
2021/10/28 19:35:27;;;;;;;13.15;7.45;;;;;;;15.05;62.33;100449.66;5051590;28;20045;-60
2021/10/28 19:38:06;;;;;;;15.30;7.40;;;;;;;14.92;62.69;100450.84;5054874;28;20056;-61
2021/10/28 19:48:32;;;;;;;13.68;6.95;;;;;;;15.01;62.73;100443.22;5057103;28;20531;-62
2021/10/28 19:50:59;;;;;;;12.98;7.00;;;;;;;14.93;62.85;100441.38;5055401;28;20052;-62
2021/10/28 19:53:26;;;;;;;16.73;7.53;;;;;;;14.95;62.77;100439.88;5056847;28;20049;-63
2021/10/28 19:55:55;;;;;;;13.43;7.47;;;;;;;14.67;63.61;100438.97;5055538;28;20052;-61
2021/10/28 19:58:25;;;;;;;13.15;8.05;;;;;;;14.52;64.16;100442.44;5056352;28;20049;-62
2021/10/28 20:01:01;;;;;;;17.47;8.40;;;;;;;14.70;63.52;100434.72;5055797;28;20049;-63
2021/10/28 20:20:14;;;;;;;12.43;7.60;;;;;;;14.59;64.39;100439.91;5049938;28;20049;-62
2021/10/28 20:22:44;;;;;;;14.52;7.80;;;;;;;14.65;64.16;100427.41;5073267;28;20047;-63
2021/10/28 20:25:16;;;;;;;12.75;6.88;;;;;;;14.65;63.84;100421.88;5051614;28;20041;-62